PST,Max TemperatureF,Mean TemperatureF,Min TemperatureF,Max Dew PointF,MeanDew PointF,Min DewpointF,Max Humidity, Mean Humidity, Min Humidity, Max Sea Level PressureIn, Mean Sea Level PressureIn, Min Sea Level PressureIn, Max VisibilityMiles, Mean VisibilityMiles, Min VisibilityMiles, Max Wind SpeedMPH, Mean Wind SpeedMPH, Max Gust SpeedMPH,PrecipitationIn, CloudCover, Events, WindDirDegrees
2012-12-1,64,60,56,62,57,54,100,92,84,30.09,30.04,29.98,10,6,1,17,4,22,0.61,8,Rain,201
2012-12-2,61,56,50,61,57,48,100,93,86,30.12,29.96,29.90,10,6,1,29,10,38,0.92,7,Rain,190
2012-12-3,60,53,46,51,48,45,96,84,72,30.21,30.16,30.11,10,10,10,9,2,26,0.00,2,,69
2012-12-4,60,55,50,52,50,48,96,86,75,30.27,30.23,30.20,10,10,10,10,2,18,0.00,4,,259
2012-12-5,62,59,55,63,58,51,100,92,83,30.21,30.14,30.08,10,6,0,7,1,24,0.43,8,Fog-Rain,197
2012-12-6,61,55,48,58,54,45,100,86,72,30.13,30.10,30.06,10,6,0,8,3,48,0.01,7,Fog,174
2012-12-7,62,53,44,50,46,42,93,77,60,30.14,30.09,30.06,10,10,10,8,3,30,0.00,0,,310
2012-12-8,64,51,38,48,42,36,100,72,44,30.08,30.05,30.00,10,10,7,7,1,21,0.00,0,,291
2012-12-9,67,54,41,44,40,38,89,63,37,30.18,30.12,30.08,10,10,10,7,2,15,0.00,0,,302
2012-12-10,70,57,43,48,43,39,86,63,40,30.22,30.16,30.11,10,10,9,8,3,20,0.00,0,,325
2012-12-11,63,52,40,49,45,38,89,75,60,30.10,29.99,29.91,10,10,9,10,3,15,0.00,3,,232
2012-12-12,57,48,39,50,45,36,100,76,51,29.93,29.88,29.86,10,8,2,16,4,21,0.18,5,Rain,246
2012-12-13,55,46,36,41,37,34,92,74,55,29.92,29.89,29.84,10,10,10,12,3,14,0.00,0,,323
2012-12-14,53,44,35,39,36,33,92,73,54,30.04,29.92,29.86,10,10,10,6,2,9,0.00,4,,324
2012-12-15,47,40,33,43,38,32,96,86,76,30.12,30.06,30.02,10,10,6,13,3,16,0.10,5,Rain,15
2012-12-16,56,50,44,52,47,40,89,78,66,30.13,30.09,30.05,10,10,6,9,2,21,0.01,7,Rain,222
2012-12-17,58,51,44,55,51,42,100,90,80,30.10,30.05,30.00,10,7,2,22,5,61,0.21,7,Rain,216
2012-12-18,54,45,35,41,33,28,100,69,38,30.19,30.07,30.01,10,10,10,15,5,22,0.00,0,,295
2012-12-19,54,43,31,33,29,25,85,59,32,30.34,30.27,30.19,10,10,10,7,3,12,0.00,0,,321
2012-12-20,58,45,31,33,29,25,82,55,28,30.24,30.16,30.07,10,10,10,8,2,12,0.00,0,,314
2012-12-21,55,46,37,48,39,28,83,67,50,30.06,29.99,29.94,10,10,7,15,5,29,0.05,5,Rain,24
2012-12-22,55,52,48,54,50,46,100,89,77,30.14,29.99,29.92,10,7,1,17,5,87,0.76,7,Rain-Thunderstorm,200
2012-12-23,57,52,47,56,51,47,100,97,93,30.14,30.01,29.92,10,5,1,25,6,31,1.50,7,Rain,167
2012-12-24,57,49,41,50,44,40,100,81,61,30.21,30.13,30.05,10,8,0,8,3,10,0.01,2,Fog,295
2012-12-25,51,45,39,47,43,37,100,86,71,30.16,30.00,29.88,10,8,2,10,2,24,0.67,6,Rain,34
2012-12-26,54,47,40,47,42,39,100,90,80,30.12,30.00,29.92,10,8,1,13,4,20,0.08,5,Rain,278
2012-12-27,55,46,36,42,38,35,100,77,54,30.19,30.14,30.11,10,10,10,8,3,10,0.00,1,,295
2012-12-28,50,42,34,42,38,33,92,77,61,30.20,30.12,30.04,10,10,9,6,1,16,0.05,4,Rain,357
2012-12-29,53,46,39,46,41,36,100,82,63,30.10,30.03,29.99,10,10,7,13,5,16,0.20,6,Rain,28
2012-12-30,54,44,34,43,36,33,100,78,56,30.19,30.10,30.05,10,10,9,9,2,12,0.00,0,,289
2012-12-31,53,42,31,37,34,31,89,68,46,30.30,30.25,30.20,10,10,10,9,3,10,0.00,1,,308